Time;durP1;ratioP1;P1;durP2;ratioP2;P2;SDS_P1;SDS_P2;PMS_P1;PMS_P2;Temp;Humidity;BMP_temperature;BMP_pressure;BME280_temperature;BME280_humidity;BME280_pressure;Samples;Min_cycle;Max_cycle;Signal;HPM_P1;HPM_P2
2023/12/19 00:01:31;;;;;;;58.17;33.35;;;9.20;99.90;;;;;;5064038;28;20187;-37
2023/12/19 00:03:57;;;;;;;59.70;33.38;;;9.20;99.90;;;;;;5064666;28;20620;-39
2023/12/19 00:06:23;;;;;;;56.35;31.70;;;9.20;99.90;;;;;;5063956;28;20263;-36
2023/12/19 00:08:49;;;;;;;54.40;30.40;;;9.20;99.90;;;;;;5063501;28;20312;-36
2023/12/19 00:11:15;;;;;;;54.63;30.40;;;9.20;99.90;;;;;;5065721;28;20216;-38
2023/12/19 00:13:41;;;;;;;48.90;31.60;;;9.20;99.90;;;;;;5062753;28;20528;-38
2023/12/19 00:16:07;;;;;;;51.15;28.65;;;9.20;99.90;;;;;;5065361;28;20234;-38
2023/12/19 00:18:33;;;;;;;53.63;30.30;;;9.20;99.90;;;;;;5063385;28;20206;-38
2023/12/19 00:20:58;;;;;;;48.50;28.95;;;9.20;99.90;;;;;;5064436;28;20262;-37
2023/12/19 00:23:30;;;;;;;49.60;28.30;;;9.20;99.90;;;;;;5064442;28;20191;-39
2023/12/19 00:25:57;;;;;;;46.22;27.33;;;9.30;99.90;;;;;;5064817;28;20232;-40
2023/12/19 00:28:23;;;;;;;47.47;27.33;;;9.30;99.90;;;;;;5062738;28;20967;-39
2023/12/19 00:30:49;;;;;;;49.95;28.80;;;9.30;99.90;;;;;;5062464;28;20186;-41
2023/12/19 00:33:14;;;;;;;46.45;28.00;;;9.30;99.90;;;;;;5066243;28;20318;-40
2023/12/19 00:35:40;;;;;;;46.22;26.50;;;9.30;99.90;;;;;;5063072;28;20186;-38
2023/12/19 00:38:06;;;;;;;52.17;27.40;;;9.40;99.90;;;;;;5064073;28;20211;-37
2023/12/19 00:40:32;;;;;;;50.33;28.13;;;9.30;99.90;;;;;;5065495;28;20577;-39
2023/12/19 00:42:58;;;;;;;48.08;28.52;;;9.40;99.90;;;;;;5064082;28;20552;-37
2023/12/19 00:45:24;;;;;;;48.75;28.92;;;9.40;99.90;;;;;;5062124;28;20194;-39
2023/12/19 00:47:50;;;;;;;43.95;27.10;;;9.40;99.90;;;;;;5064055;28;20187;-38
2023/12/19 00:50:16;;;;;;;47.80;27.88;;;9.40;99.90;;;;;;5064543;28;20223;-37
2023/12/19 00:52:42;;;;;;;48.63;29.25;;;9.40;99.90;;;;;;5063665;28;20198;-41
2023/12/19 00:55:08;;;;;;;51.40;29.35;;;9.40;99.90;;;;;;5063523;28;20208;-39
2023/12/19 00:57:34;;;;;;;44.80;26.88;;;9.40;99.90;;;;;;5063216;28;20210;-37
2023/12/19 01:00:00;;;;;;;49.83;28.77;;;9.40;99.90;;;;;;5063411;28;20191;-39
2023/12/19 01:02:27;;;;;;;50.65;27.50;;;9.40;99.90;;;;;;5064272;28;20191;-41
2023/12/19 01:04:56;;;;;;;47.72;27.80;;;9.40;99.90;;;;;;5063882;28;20232;-39
2023/12/19 01:07:23;;;;;;;48.15;27.90;;;9.40;99.90;;;;;;5065005;28;20304;-38
2023/12/19 01:09:49;;;;;;;44.35;26.67;;;9.40;99.90;;;;;;5079064;28;20251;-38
2023/12/19 01:12:15;;;;;;;43.45;26.48;;;9.40;99.90;;;;;;5060861;28;20214;-37
2023/12/19 01:14:41;;;;;;;48.97;27.58;;;9.40;99.90;;;;;;5064476;28;20233;-39
2023/12/19 01:17:07;;;;;;;45.50;26.80;;;9.40;99.90;;;;;;5062051;28;20226;-40
2023/12/19 01:19:33;;;;;;;45.30;27.20;;;9.40;99.90;;;;;;5064715;28;20192;-40
2023/12/19 01:21:59;;;;;;;47.67;27.63;;;9.40;99.90;;;;;;5064931;28;20206;-39
2023/12/19 01:24:25;;;;;;;45.30;27.75;;;9.40;99.90;;;;;;5060920;28;20206;-38
2023/12/19 01:26:51;;;;;;;40.15;26.13;;;9.40;99.90;;;;;;5061709;28;20201;-38
2023/12/19 01:29:21;;;;;;;47.70;27.40;;;9.50;99.90;;;;;;5064041;28;20201;-40
2023/12/19 01:31:46;;;;;;;46.47;26.83;;;9.40;99.90;;;;;;5061908;28;20728;-37
2023/12/19 01:34:13;;;;;;;41.97;25.92;;;9.50;99.90;;;;;;5063256;28;20224;-46
2023/12/19 01:36:42;;;;;;;47.63;26.50;;;9.50;99.90;;;;;;5061437;28;20211;-39
2023/12/19 01:39:08;;;;;;;41.67;26.13;;;9.50;99.90;;;;;;5062714;28;20661;-40
2023/12/19 01:41:34;;;;;;;36.08;23.50;;;9.50;99.90;;;;;;5078605;28;20182;-38
2023/12/19 01:44:00;;;;;;;38.72;24.95;;;9.50;99.90;;;;;;5062845;28;20186;-40
2023/12/19 01:46:27;;;;;;;44.65;25.33;;;9.50;99.90;;;;;;5079105;28;20191;-40
2023/12/19 01:48:53;;;;;;;41.03;24.58;;;9.50;99.90;;;;;;5064634;28;20579;-40
2023/12/19 01:51:20;;;;;;;38.85;24.48;;;9.50;99.90;;;;;;5056403;28;20186;-39
2023/12/19 01:53:48;;;;;;;36.42;22.98;;;9.50;99.90;;;;;;5063236;28;20734;-36
2023/12/19 01:56:17;;;;;;;36.92;23.52;;;9.60;99.90;;;;;;5046390;28;20222;-41
2023/12/19 01:58:44;;;;;;;36.42;22.80;;;9.50;99.90;;;;;;5062560;28;20183;-37
2023/12/19 02:01:11;;;;;;;37.40;23.33;;;9.50;99.90;;;;;;5061889;28;21074;-39
2023/12/19 02:03:39;;;;;;;33.85;22.60;;;9.50;99.90;;;;;;5063365;28;20969;-40
2023/12/19 02:06:06;;;;;;;35.05;21.17;;;9.50;99.90;;;;;;5063308;28;20273;-39
2023/12/19 02:08:33;;;;;;;34.70;22.67;;;9.50;99.90;;;;;;5064296;28;20190;-39
2023/12/19 02:10:59;;;;;;;32.95;21.15;;;9.50;99.90;;;;;;5062446;28;20265;-39
2023/12/19 02:13:25;;;;;;;31.45;21.17;;;9.50;99.90;;;;;;5061926;28;20186;-39
2023/12/19 02:15:51;;;;;;;33.72;21.58;;;9.50;99.90;;;;;;5062662;28;20213;-41
2023/12/19 02:18:19;;;;;;;30.70;20.85;;;9.50;99.90;;;;;;5062429;28;20384;-37
2023/12/19 02:20:45;;;;;;;31.30;20.85;;;9.50;99.90;;;;;;5062562;28;20186;-39
2023/12/19 02:23:15;;;;;;;30.13;19.52;;;9.60;99.90;;;;;;5063108;28;20178;-39
2023/12/19 02:25:41;;;;;;;29.13;20.17;;;9.60;99.90;;;;;;5077889;28;20182;-37
2023/12/19 02:28:08;;;;;;;31.75;21.27;;;9.60;99.90;;;;;;5062107;28;20535;-39
2023/12/19 02:30:37;;;;;;;31.75;19.75;;;9.60;99.90;;;;;;5062704;28;20210;-40
2023/12/19 02:33:04;;;;;;;30.52;20.20;;;9.60;99.90;;;;;;5062414;28;20341;-38
2023/12/19 02:35:30;;;;;;;31.10;19.77;;;9.60;99.90;;;;;;5062994;28;20204;-38
2023/12/19 02:37:56;;;;;;;31.65;20.52;;;9.50;99.90;;;;;;5061701;28;20214;-39
2023/12/19 02:40:23;;;;;;;32.53;19.75;;;9.50;99.90;;;;;;5063148;28;20562;-37
2023/12/19 02:42:49;;;;;;;30.00;20.17;;;9.60;99.90;;;;;;5062147;28;20183;-39
2023/12/19 02:45:16;;;;;;;30.58;19.98;;;9.50;99.90;;;;;;5061908;28;20654;-39
2023/12/19 02:47:41;;;;;;;29.35;18.75;;;9.50;99.90;;;;;;5062873;28;20194;-37
2023/12/19 02:50:07;;;;;;;31.20;19.83;;;9.50;99.90;;;;;;5063437;28;21185;-37
2023/12/19 02:52:33;;;;;;;29.85;19.45;;;9.50;99.90;;;;;;5061362;28;20202;-39
2023/12/19 02:54:59;;;;;;;27.92;19.00;;;9.60;99.90;;;;;;5060097;28;20679;-37
2023/12/19 02:57:25;;;;;;;26.10;18.20;;;9.50;99.90;;;;;;5061831;28;20202;-40
2023/12/19 02:59:51;;;;;;;29.48;18.70;;;9.60;99.90;;;;;;5063707;28;20282;-37
2023/12/19 03:02:17;;;;;;;25.77;17.58;;;9.60;99.90;;;;;;5064564;28;20251;-37
2023/12/19 03:04:43;;;;;;;25.77;17.92;;;9.50;99.90;;;;;;5065742;28;20208;-38
2023/12/19 03:07:10;;;;;;;24.63;17.55;;;9.60;99.90;;;;;;5065392;28;20224;-39
2023/12/19 03:09:36;;;;;;;27.02;17.65;;;9.50;99.90;;;;;;5065896;28;20190;-37
2023/12/19 03:12:04;;;;;;;24.63;17.50;;;9.60;99.90;;;;;;5065231;28;20224;-36
2023/12/19 03:14:31;;;;;;;22.92;16.38;;;9.60;99.90;;;;;;5066156;28;20209;-41
2023/12/19 03:16:57;;;;;;;22.70;15.73;;;9.60;99.90;;;;;;5065864;28;20230;-38
2023/12/19 03:19:23;;;;;;;21.55;14.40;;;9.60;99.90;;;;;;5065074;28;20243;-39
2023/12/19 03:21:49;;;;;;;21.80;15.82;;;9.60;99.90;;;;;;5081011;28;20186;-37
2023/12/19 03:24:15;;;;;;;25.17;17.10;;;9.60;99.90;;;;;;5067034;28;20185;-38
2023/12/19 03:26:41;;;;;;;21.40;15.85;;;9.60;99.90;;;;;;5064685;28;20548;-40
2023/12/19 03:29:07;;;;;;;23.60;16.20;;;9.60;99.90;;;;;;5065975;28;20313;-39
2023/12/19 03:31:33;;;;;;;23.40;16.17;;;9.50;99.90;;;;;;5066177;28;20202;-39
2023/12/19 03:34:02;;;;;;;26.10;17.98;;;9.50;99.90;;;;;;5064932;28;20250;-37
2023/12/19 03:36:28;;;;;;;24.77;17.33;;;9.60;99.90;;;;;;5065643;28;20215;-40
2023/12/19 03:38:54;;;;;;;24.42;16.95;;;9.50;99.90;;;;;;5067439;28;20202;-38
2023/12/19 03:41:20;;;;;;;23.40;16.35;;;9.50;99.90;;;;;;5064240;28;20179;-39
2023/12/19 03:43:46;;;;;;;26.25;16.52;;;9.50;99.90;;;;;;5065443;28;20185;-37
2023/12/19 03:46:12;;;;;;;23.35;16.02;;;9.50;99.90;;;;;;5065873;28;20562;-39
2023/12/19 03:48:39;;;;;;;23.38;15.85;;;9.50;99.90;;;;;;5064615;28;20204;-38
2023/12/19 03:51:05;;;;;;;21.50;16.10;;;9.50;99.90;;;;;;5066656;28;20244;-40
2023/12/19 03:53:32;;;;;;;23.63;16.95;;;9.50;99.90;;;;;;5063362;28;20231;-38
2023/12/19 03:55:58;;;;;;;23.42;16.00;;;9.50;99.90;;;;;;5063730;28;20187;-38
2023/12/19 03:58:24;;;;;;;21.63;16.13;;;9.40;99.90;;;;;;5082150;28;20190;-38
2023/12/19 04:00:50;;;;;;;24.80;16.42;;;9.40;99.90;;;;;;5064084;28;20241;-38
2023/12/19 04:03:16;;;;;;;22.33;15.88;;;9.40;99.90;;;;;;5065446;28;20183;-39
2023/12/19 04:05:42;;;;;;;21.88;15.20;;;9.40;99.90;;;;;;5065016;28;20198;-40
2023/12/19 04:08:07;;;;;;;22.00;15.48;;;9.40;99.90;;;;;;5063263;28;20596;-38
2023/12/19 04:10:33;;;;;;;18.98;14.57;;;9.40;99.90;;;;;;5064988;28;20202;-40
2023/12/19 04:12:59;;;;;;;19.52;14.50;;;9.40;99.90;;;;;;5080915;28;20195;-38
2023/12/19 04:15:25;;;;;;;19.50;14.05;;;9.40;99.90;;;;;;5064100;28;20194;-38
2023/12/19 04:17:51;;;;;;;18.52;13.45;;;9.40;99.90;;;;;;5064481;28;20222;-39
2023/12/19 04:20:17;;;;;;;19.25;13.50;;;9.40;99.90;;;;;;5065158;28;20193;-39
2023/12/19 04:22:43;;;;;;;19.80;13.48;;;9.40;99.90;;;;;;5064866;28;20194;-37
2023/12/19 04:25:09;;;;;;;18.13;13.23;;;9.30;99.90;;;;;;5064435;28;20199;-39
2023/12/19 04:27:36;;;;;;;19.05;13.07;;;9.30;99.90;;;;;;5064264;28;20301;-38
2023/12/19 04:30:02;;;;;;;18.08;12.73;;;9.30;99.90;;;;;;5063637;28;20205;-38
2023/12/19 04:32:28;;;;;;;16.10;11.82;;;9.30;99.90;;;;;;5064768;28;20532;-39
2023/12/19 04:34:54;;;;;;;17.67;12.45;;;9.20;99.90;;;;;;5062127;28;20260;-38
2023/12/19 04:37:20;;;;;;;16.02;11.15;;;9.20;99.90;;;;;;5064095;28;20585;-38
2023/12/19 04:39:46;;;;;;;15.60;11.27;;;9.20;99.90;;;;;;5064552;28;20711;-39
2023/12/19 04:42:17;;;;;;;16.77;11.82;;;9.10;99.90;;;;;;5063811;28;20605;-37
2023/12/19 04:44:47;;;;;;;16.13;11.95;;;9.10;99.90;;;;;;5079865;28;20277;-38
2023/12/19 04:47:13;;;;;;;14.95;11.02;;;9.10;99.90;;;;;;5065578;28;20212;-37
2023/12/19 04:49:40;;;;;;;17.08;11.40;;;9.10;99.90;;;;;;5062207;28;20655;-37
2023/12/19 04:52:06;;;;;;;15.02;10.23;;;9.10;99.90;;;;;;5063282;28;20186;-39
2023/12/19 04:54:32;;;;;;;16.10;11.13;;;9.10;99.90;;;;;;5065037;28;20179;-39
2023/12/19 04:56:58;;;;;;;15.25;10.70;;;9.10;99.90;;;;;;5063641;28;20206;-38
2023/12/19 04:59:24;;;;;;;14.40;10.45;;;9.10;99.90;;;;;;5063521;28;20545;-39
2023/12/19 05:01:51;;;;;;;14.52;10.77;;;9.10;99.90;;;;;;5080030;28;20206;-38
2023/12/19 05:04:17;;;;;;;15.00;10.27;;;9.10;99.90;;;;;;5045209;28;20202;-39
2023/12/19 05:06:43;;;;;;;15.23;10.68;;;9.10;99.90;;;;;;5063897;28;20198;-39
2023/12/19 05:09:09;;;;;;;14.98;10.55;;;9.10;99.90;;;;;;5061997;28;20191;-41
2023/12/19 05:11:35;;;;;;;12.73;9.48;;;9.10;99.90;;;;;;5063638;28;20197;-41
2023/12/19 05:14:01;;;;;;;12.73;10.05;;;9.10;99.90;;;;;;5062438;28;20191;-40
2023/12/19 05:16:27;;;;;;;14.13;10.00;;;9.10;99.90;;;;;;5063054;28;20233;-39
2023/12/19 05:18:53;;;;;;;12.85;9.77;;;9.10;99.90;;;;;;5064635;28;20962;-42
2023/12/19 05:21:21;;;;;;;14.32;9.95;;;9.10;99.90;;;;;;5062726;28;20190;-40
2023/12/19 05:23:47;;;;;;;14.90;10.30;;;9.10;99.90;;;;;;5062745;28;20183;-38
2023/12/19 05:26:13;;;;;;;14.85;10.30;;;9.10;99.90;;;;;;5064264;28;20190;-37
2023/12/19 05:28:40;;;;;;;15.13;10.15;;;9.10;99.90;;;;;;5064327;28;20646;-40
2023/12/19 05:31:10;;;;;;;13.73;9.90;;;9.10;99.90;;;;;;5062692;28;21054;-41
2023/12/19 05:33:36;;;;;;;14.75;10.05;;;9.10;99.90;;;;;;5063262;28;20191;-39
2023/12/19 05:36:03;;;;;;;12.60;9.35;;;9.10;99.90;;;;;;5062506;28;21137;-38
2023/12/19 05:38:35;;;;;;;15.93;9.95;;;9.10;99.90;;;;;;5047933;28;20695;-38
2023/12/19 05:41:02;;;;;;;13.75;9.80;;;9.10;99.90;;;;;;5047087;28;20179;-38
2023/12/19 05:43:28;;;;;;;11.98;9.40;;;9.10;99.90;;;;;;5062670;28;20197;-40
2023/12/19 05:45:54;;;;;;;12.13;9.45;;;9.10;99.90;;;;;;5061531;28;20201;-39
2023/12/19 05:48:22;;;;;;;10.85;8.60;;;9.10;99.90;;;;;;5060445;28;20186;-40
2023/12/19 05:50:49;;;;;;;11.95;9.05;;;9.20;99.90;;;;;;5062086;28;20225;-39
2023/12/19 05:53:15;;;;;;;12.45;9.35;;;9.20;99.90;;;;;;5062880;28;20192;-37
2023/12/19 05:55:43;;;;;;;13.45;8.68;;;9.20;99.90;;;;;;5064338;28;20186;-38
2023/12/19 05:58:09;;;;;;;11.93;8.88;;;9.20;99.90;;;;;;5061937;28;20203;-39
2023/12/19 06:00:36;;;;;;;11.60;8.65;;;9.20;99.90;;;;;;5061939;28;20719;-40
2023/12/19 06:03:01;;;;;;;11.98;8.27;;;9.20;99.90;;;;;;5062456;28;20252;-38
2023/12/19 06:05:27;;;;;;;12.00;8.18;;;9.20;99.90;;;;;;5061169;28;20179;-38
2023/12/19 06:07:53;;;;;;;10.05;8.07;;;9.20;99.90;;;;;;5061118;28;20302;-39
2023/12/19 06:10:19;;;;;;;10.32;7.53;;;9.20;99.90;;;;;;5063343;28;20674;-40
2023/12/19 06:12:46;;;;;;;9.75;7.68;;;9.20;99.90;;;;;;5061231;28;20190;-39
2023/12/19 06:15:13;;;;;;;12.52;7.47;;;9.20;99.90;;;;;;5063820;28;20992;-39
2023/12/19 06:17:41;;;;;;;10.85;7.18;;;9.20;99.90;;;;;;5061759;28;20606;-40
2023/12/19 06:20:10;;;;;;;11.10;7.97;;;9.30;99.90;;;;;;5061132;28;20642;-42
2023/12/19 06:22:36;;;;;;;10.82;7.95;;;9.30;99.90;;;;;;5063285;28;20476;-39
2023/12/19 06:25:03;;;;;;;10.95;7.90;;;9.30;99.90;;;;;;5061549;28;20228;-39
2023/12/19 06:27:28;;;;;;;10.65;7.60;;;9.30;99.90;;;;;;5062004;28;20190;-38
2023/12/19 06:29:55;;;;;;;10.95;8.52;;;9.30;99.90;;;;;;5062827;28;20633;-40
2023/12/19 06:32:21;;;;;;;9.55;7.90;;;9.30;99.90;;;;;;5062845;28;20673;-40
2023/12/19 06:34:47;;;;;;;10.52;8.40;;;9.30;99.90;;;;;;5066525;28;20186;-39
2023/12/19 06:37:13;;;;;;;11.13;8.63;;;9.40;99.90;;;;;;5065708;28;20214;-40
2023/12/19 06:39:39;;;;;;;12.07;8.82;;;9.40;99.90;;;;;;5066985;28;20194;-39
2023/12/19 06:42:05;;;;;;;11.43;8.65;;;9.40;99.90;;;;;;5066725;28;20189;-39
2023/12/19 06:44:31;;;;;;;14.43;9.50;;;9.40;99.90;;;;;;5065266;28;20661;-37
2023/12/19 06:46:57;;;;;;;12.50;9.32;;;9.40;99.90;;;;;;5064929;28;20285;-37
2023/12/19 06:49:24;;;;;;;12.23;9.27;;;9.50;99.90;;;;;;5065544;28;20190;-38
2023/12/19 06:51:51;;;;;;;13.15;9.52;;;9.40;99.90;;;;;;5064575;28;20193;-39
2023/12/19 06:54:17;;;;;;;11.23;8.90;;;9.40;99.90;;;;;;5063507;28;20182;-39
2023/12/19 06:56:43;;;;;;;12.43;8.98;;;9.40;99.90;;;;;;5066687;28;20267;-39
2023/12/19 06:59:09;;;;;;;12.70;9.73;;;9.40;99.90;;;;;;5065488;28;20673;-38
2023/12/19 07:01:35;;;;;;;11.85;8.73;;;9.50;99.90;;;;;;5065146;28;20182;-38
2023/12/19 07:04:02;;;;;;;12.93;9.98;;;9.40;99.90;;;;;;5065994;28;20193;-38
2023/12/19 07:06:27;;;;;;;12.90;9.73;;;9.40;99.90;;;;;;5079974;28;20261;-38
2023/12/19 07:08:54;;;;;;;14.63;9.88;;;9.40;99.90;;;;;;5065928;28;20209;-39
2023/12/19 07:11:21;;;;;;;14.13;9.57;;;9.40;99.90;;;;;;5064020;28;20561;-36
2023/12/19 07:13:47;;;;;;;11.40;8.52;;;9.50;99.90;;;;;;5065184;28;20716;-42
2023/12/19 07:16:14;;;;;;;12.32;9.73;;;9.50;99.90;;;;;;5063902;28;20214;-38
2023/12/19 07:18:41;;;;;;;11.93;8.98;;;9.50;99.90;;;;;;5045992;28;20214;-37
2023/12/19 07:21:07;;;;;;;12.75;8.98;;;9.50;99.90;;;;;;5065117;28;20179;-39
2023/12/19 07:23:33;;;;;;;12.00;8.95;;;9.50;99.90;;;;;;5065110;28;20281;-39
2023/12/19 07:25:59;;;;;;;10.73;8.45;;;9.50;99.90;;;;;;5064543;28;20356;-39
2023/12/19 07:28:25;;;;;;;10.48;7.75;;;9.50;99.90;;;;;;5046549;28;20213;-37
2023/12/19 07:30:51;;;;;;;10.75;8.43;;;9.50;99.90;;;;;;5064345;28;20187;-40
2023/12/19 07:33:16;;;;;;;10.05;8.10;;;9.50;99.90;;;;;;5063023;28;20221;-38
2023/12/19 07:35:42;;;;;;;10.85;8.20;;;9.50;99.90;;;;;;5064419;28;20191;-39
2023/12/19 07:38:08;;;;;;;9.60;7.78;;;9.50;99.90;;;;;;5065117;28;20215;-40
2023/12/19 07:40:35;;;;;;;10.10;7.57;;;9.50;99.90;;;;;;5064544;28;20191;-38
2023/12/19 07:43:02;;;;;;;8.77;7.25;;;9.50;99.90;;;;;;5064876;28;20265;-38
2023/12/19 07:45:28;;;;;;;9.10;6.97;;;9.50;99.90;;;;;;5063172;28;20191;-38
2023/12/19 07:47:54;;;;;;;9.98;7.03;;;9.50;99.90;;;;;;5046003;28;20272;-38
2023/12/19 07:50:20;;;;;;;12.20;6.82;;;9.50;99.90;;;;;;5065938;28;20191;-39
2023/12/19 07:52:46;;;;;;;8.45;7.07;;;9.50;99.90;;;;;;5079417;28;20242;-43
2023/12/19 07:55:12;;;;;;;10.05;6.53;;;9.50;99.90;;;;;;5064408;28;20718;-40
2023/12/19 07:57:38;;;;;;;7.80;6.25;;;9.50;99.90;;;;;;5065738;28;20558;-39
2023/12/19 08:00:05;;;;;;;7.88;6.50;;;9.50;99.90;;;;;;5064490;28;20194;-41
2023/12/19 08:02:38;;;;;;;9.30;6.60;;;9.50;99.90;;;;;;5064996;28;20319;-42
2023/12/19 08:05:04;;;;;;;8.30;6.80;;;9.50;99.90;;;;;;5062746;28;20214;-38
2023/12/19 08:07:30;;;;;;;8.10;6.25;;;9.50;99.90;;;;;;5063360;28;20240;-37
2023/12/19 08:09:56;;;;;;;9.02;6.53;;;9.50;99.90;;;;;;5064838;28;20525;-37
2023/12/19 08:12:22;;;;;;;7.47;6.38;;;9.50;99.90;;;;;;5060462;28;20285;-40
2023/12/19 08:14:48;;;;;;;8.40;6.80;;;9.50;99.90;;;;;;5060040;28;20297;-38
2023/12/19 08:17:15;;;;;;;8.40;6.78;;;9.60;99.90;;;;;;5061135;28;20697;-40
2023/12/19 08:19:41;;;;;;;7.57;6.47;;;9.60;99.90;;;;;;5058688;28;20215;-41
2023/12/19 08:22:07;;;;;;;9.27;7.20;;;9.60;99.90;;;;;;5063035;28;20556;-40
2023/12/19 08:24:33;;;;;;;10.38;7.20;;;9.60;99.90;;;;;;5063101;28;20199;-40
2023/12/19 08:26:59;;;;;;;7.88;6.63;;;9.60;99.90;;;;;;5064093;28;20178;-40
2023/12/19 08:29:25;;;;;;;7.45;6.65;;;9.60;99.90;;;;;;5064720;28;20202;-42
2023/12/19 08:31:51;;;;;;;9.13;7.45;;;9.60;99.90;;;;;;5063046;28;20685;-39
2023/12/19 08:34:18;;;;;;;9.60;6.95;;;9.70;99.90;;;;;;5064445;28;20616;-41
2023/12/19 08:36:44;;;;;;;8.95;6.85;;;9.70;99.90;;;;;;5062986;28;20264;-43
2023/12/19 08:39:10;;;;;;;8.05;6.72;;;9.70;99.90;;;;;;5061270;28;20300;-39
2023/12/19 08:41:39;;;;;;;8.70;7.30;;;9.70;99.90;;;;;;5063533;28;20301;-39
2023/12/19 08:44:05;;;;;;;10.45;7.10;;;9.70;99.90;;;;;;5063142;28;20199;-39
2023/12/19 08:46:30;;;;;;;8.70;7.53;;;9.70;99.90;;;;;;5062289;28;20209;-41
2023/12/19 08:48:56;;;;;;;9.55;7.75;;;9.70;99.90;;;;;;5063743;28;20186;-39
2023/12/19 08:51:22;;;;;;;9.93;8.00;;;9.70;99.90;;;;;;5064309;28;20335;-41
2023/12/19 08:53:48;;;;;;;10.32;8.68;;;9.70;99.90;;;;;;5061888;28;20201;-40
2023/12/19 08:56:14;;;;;;;11.27;8.38;;;9.70;99.90;;;;;;5062496;28;20195;-41
2023/12/19 08:58:43;;;;;;;10.60;8.52;;;9.80;99.90;;;;;;5063634;28;20234;-40
2023/12/19 09:01:09;;;;;;;13.10;9.20;;;9.80;99.90;;;;;;5062049;28;20243;-39
2023/12/19 09:03:35;;;;;;;13.45;9.23;;;9.80;99.90;;;;;;5063635;28;20291;-39
2023/12/19 09:06:01;;;;;;;12.30;9.57;;;9.80;99.90;;;;;;5064884;28;20274;-42
2023/12/19 09:08:27;;;;;;;14.30;9.98;;;9.80;99.90;;;;;;5062285;28;20191;-38
2023/12/19 09:10:52;;;;;;;11.50;9.70;;;9.80;99.90;;;;;;5063056;28;20197;-41
2023/12/19 09:13:20;;;;;;;12.68;10.20;;;9.80;99.90;;;;;;5063438;28;20987;-42
2023/12/19 09:15:46;;;;;;;14.48;10.93;;;9.80;99.90;;;;;;5077304;28;20282;-40
2023/12/19 09:18:12;;;;;;;14.63;10.73;;;9.90;99.90;;;;;;5063012;28;20224;-40
2023/12/19 09:20:38;;;;;;;13.13;11.20;;;9.90;99.90;;;;;;5063744;28;20654;-41
2023/12/19 09:23:05;;;;;;;13.85;11.02;;;9.90;99.90;;;;;;5061052;28;20203;-39
2023/12/19 09:25:30;;;;;;;14.98;11.38;;;10.00;99.90;;;;;;5062474;28;20190;-45
2023/12/19 09:27:57;;;;;;;15.73;10.85;;;10.00;99.90;;;;;;5062956;28;20701;-37
2023/12/19 09:30:23;;;;;;;14.07;10.88;;;10.00;99.90;;;;;;5062552;28;20233;-40
2023/12/19 09:32:49;;;;;;;15.05;11.45;;;10.00;99.90;;;;;;5059174;28;20185;-40
2023/12/19 09:35:15;;;;;;;12.27;10.32;;;10.00;99.90;;;;;;5063073;28;20198;-39
2023/12/19 09:37:41;;;;;;;15.65;10.18;;;10.00;99.90;;;;;;5061638;28;20297;-43
2023/12/19 09:40:19;;;;;;;12.60;10.02;;;10.00;99.90;;;;;;5061143;28;20190;-39
2023/12/19 09:42:45;;;;;;;13.40;10.10;;;10.10;99.90;;;;;;5047678;28;20194;-41
2023/12/19 09:45:14;;;;;;;12.38;10.50;;;10.10;99.90;;;;;;5061452;28;20556;-40
2023/12/19 09:47:41;;;;;;;13.75;10.40;;;10.10;99.90;;;;;;5078572;28;20182;-41
2023/12/19 09:50:12;;;;;;;12.55;10.18;;;10.10;99.90;;;;;;5062161;28;20190;-42
2023/12/19 09:52:41;;;;;;;12.50;10.30;;;10.20;99.90;;;;;;5077619;28;20560;-40
2023/12/19 09:55:07;;;;;;;13.32;10.20;;;10.20;99.90;;;;;;5062693;28;20199;-43
2023/12/19 09:57:35;;;;;;;14.20;10.05;;;10.20;99.90;;;;;;5061286;28;20249;-38
2023/12/19 10:00:08;;;;;;;13.18;9.80;;;10.20;99.90;;;;;;5061850;28;20256;-41
2023/12/19 10:02:34;;;;;;;12.98;10.18;;;10.20;99.90;;;;;;5062702;28;20194;-40
2023/12/19 10:05:00;;;;;;;12.52;10.15;;;10.30;99.90;;;;;;5062363;28;21113;-40
2023/12/19 10:07:29;;;;;;;12.05;9.63;;;10.30;99.90;;;;;;5060425;28;20205;-41
2023/12/19 10:09:56;;;;;;;11.40;9.52;;;10.30;99.90;;;;;;5062250;28;21753;-41
2023/12/19 10:12:27;;;;;;;12.23;10.05;;;10.30;99.90;;;;;;5062435;28;20190;-41
2023/12/19 10:15:13;;;;;;;10.65;9.45;;;10.30;99.90;;;;;;5061528;28;20186;-39
2023/12/19 10:17:40;;;;;;;11.25;9.05;;;10.30;99.90;;;;;;5062886;28;20222;-40
2023/12/19 10:20:11;;;;;;;10.05;8.70;;;10.40;99.90;;;;;;5062029;28;20206;-41
2023/12/19 10:22:38;;;;;;;10.70;9.20;;;10.30;99.90;;;;;;5062763;28;20190;-39
2023/12/19 10:25:04;;;;;;;10.40;9.05;;;10.40;99.90;;;;;;5062330;28;20183;-39
2023/12/19 10:27:30;;;;;;;11.48;8.85;;;10.40;99.90;;;;;;5061007;28;20194;-41
2023/12/19 10:30:17;;;;;;;12.43;9.02;;;10.40;99.90;;;;;;5061244;28;20197;-44
2023/12/19 10:32:46;;;;;;;10.60;9.38;;;10.40;99.90;;;;;;5062008;28;20513;-40
2023/12/19 10:35:12;;;;;;;10.73;8.88;;;10.50;99.90;;;;;;5062061;28;20286;-39
2023/12/19 10:37:38;;;;;;;13.82;9.48;;;10.50;99.90;;;;;;5061800;28;20218;-39
2023/12/19 10:40:12;;;;;;;10.93;9.57;;;10.50;99.90;;;;;;5060931;28;20195;-39
2023/12/19 10:42:38;;;;;;;11.10;9.30;;;10.50;99.90;;;;;;5060866;28;20289;-39
2023/12/19 10:45:05;;;;;;;14.57;11.77;;;10.50;99.90;;;;;;5061609;28;20190;-41
2023/12/19 10:47:31;;;;;;;13.70;10.18;;;10.60;99.90;;;;;;5077442;28;20190;-40
2023/12/19 10:49:57;;;;;;;13.02;10.85;;;10.60;99.90;;;;;;5063074;28;20198;-38
2023/12/19 10:52:27;;;;;;;14.52;11.77;;;10.60;99.90;;;;;;5060317;28;20252;-39
2023/12/19 10:55:04;;;;;;;12.55;10.48;;;10.60;99.90;;;;;;5062262;28;20195;-41
2023/12/19 10:57:34;;;;;;;12.57;9.93;;;10.60;99.90;;;;;;5061282;28;20215;-41
2023/12/19 11:00:13;;;;;;;12.70;10.43;;;10.60;99.90;;;;;;5060334;28;20240;-38
2023/12/19 11:02:42;;;;;;;13.07;10.68;;;10.70;99.90;;;;;;5060470;28;21212;-45
2023/12/19 11:05:08;;;;;;;12.13;10.25;;;10.70;99.90;;;;;;5061702;28;20234;-40
2023/12/19 11:07:34;;;;;;;13.05;10.85;;;10.70;99.90;;;;;;5061866;28;20217;-43
2023/12/19 11:10:05;;;;;;;12.23;10.70;;;10.70;99.90;;;;;;5051615;28;20640;-42
2023/12/19 11:12:32;;;;;;;12.77;10.38;;;10.70;99.90;;;;;;5062644;28;20187;-41
2023/12/19 11:14:58;;;;;;;14.55;10.85;;;10.80;99.90;;;;;;5077179;28;20278;-42
2023/12/19 11:17:51;;;;;;;12.25;10.10;;;10.80;99.90;;;;;;5061846;28;20317;-40
2023/12/19 11:20:27;;;;;;;14.60;11.23;;;10.80;99.90;;;;;;5063254;28;20299;-43
2023/12/19 11:23:19;;;;;;;14.02;11.23;;;10.90;99.90;;;;;;5063704;28;20178;-40
2023/12/19 11:25:54;;;;;;;14.73;11.57;;;10.90;99.90;;;;;;5034676;28;20191;-42
2023/12/19 11:28:20;;;;;;;13.73;11.35;;;10.90;99.90;;;;;;5065030;28;20201;-42
2023/12/19 11:30:46;;;;;;;13.50;11.20;;;10.90;99.90;;;;;;5064838;28;20186;-39
2023/12/19 11:33:13;;;;;;;14.23;11.00;;;10.90;99.90;;;;;;5065726;28;20199;-41
2023/12/19 11:35:40;;;;;;;12.82;10.77;;;10.90;99.90;;;;;;5066579;28;20194;-37
2023/12/19 11:38:15;;;;;;;13.27;11.10;;;11.00;99.90;;;;;;5064729;28;20329;-40
2023/12/19 11:40:50;;;;;;;12.40;10.73;;;10.90;99.90;;;;;;5064541;28;20285;-41
2023/12/19 11:43:28;;;;;;;13.82;11.27;;;10.90;99.90;;;;;;5065985;28;21080;-41
2023/12/19 11:46:03;;;;;;;13.75;11.50;;;11.00;99.90;;;;;;5065538;28;20190;-41
2023/12/19 11:48:36;;;;;;;12.18;10.35;;;11.00;99.90;;;;;;5065182;28;20198;-37
2023/12/19 11:51:04;;;;;;;14.15;10.65;;;11.00;99.90;;;;;;5065703;28;20199;-39
2023/12/19 11:53:30;;;;;;;12.93;9.88;;;11.00;99.90;;;;;;5064629;28;20235;-42
2023/12/19 11:56:10;;;;;;;12.10;9.77;;;11.00;99.90;;;;;;5064880;28;20652;-45
2023/12/19 11:58:46;;;;;;;11.32;9.57;;;11.00;99.90;;;;;;5063500;28;20214;-41
2023/12/19 12:01:13;;;;;;;11.00;9.38;;;11.00;99.90;;;;;;5065117;28;20178;-42
2023/12/19 12:03:39;;;;;;;12.73;10.50;;;11.00;99.90;;;;;;5065913;28;20194;-40
2023/12/19 12:06:05;;;;;;;11.55;9.50;;;11.00;99.90;;;;;;5063805;28;20198;-43
2023/12/19 12:08:31;;;;;;;12.27;9.18;;;11.00;99.90;;;;;;5064694;28;20255;-43
2023/12/19 12:11:01;;;;;;;11.38;9.63;;;11.00;99.90;;;;;;5065007;28;20191;-40
2023/12/19 12:13:29;;;;;;;12.57;10.20;;;11.00;99.90;;;;;;5063767;28;20212;-39
2023/12/19 12:15:59;;;;;;;14.95;9.50;;;11.00;99.90;;;;;;5063518;28;20182;-42
2023/12/19 12:18:26;;;;;;;10.02;8.63;;;11.00;99.90;;;;;;5066049;28;20240;-38
2023/12/19 12:21:16;;;;;;;10.57;9.10;;;11.00;99.90;;;;;;5060205;28;20179;-39
2023/12/19 12:23:42;;;;;;;10.52;8.57;;;11.00;99.90;;;;;;5063575;28;20237;-41
2023/12/19 12:26:08;;;;;;;10.30;9.05;;;11.00;99.90;;;;;;5064350;28;20277;-40
2023/12/19 12:28:36;;;;;;;11.18;9.32;;;11.00;99.90;;;;;;5080235;28;20285;-41
2023/12/19 12:31:03;;;;;;;9.48;8.10;;;11.00;99.90;;;;;;5063631;28;20248;-41
2023/12/19 12:33:31;;;;;;;9.38;8.02;;;11.00;99.90;;;;;;5065278;28;20210;-38
2023/12/19 12:35:57;;;;;;;10.80;8.63;;;11.00;99.90;;;;;;5061645;28;20193;-41
2023/12/19 12:38:25;;;;;;;10.23;8.27;;;11.00;99.90;;;;;;5062926;28;20207;-42